createdAt,value
2022-10-04T00:01:52.514Z,3.60
2022-10-04T00:04:39.417Z,3.55
2022-10-04T00:07:20.841Z,3.65
2022-10-04T00:09:55.726Z,4.70
2022-10-04T00:12:31.223Z,3.95
2022-10-04T00:15:02.525Z,3.67
2022-10-04T00:17:37.236Z,4.05
2022-10-04T00:20:24.676Z,3.93
2022-10-04T00:23:38.310Z,4.03
2022-10-04T00:26:10.718Z,4.32
2022-10-04T00:28:36.957Z,4.35
2022-10-04T00:31:24.684Z,4.82
2022-10-04T00:34:03.047Z,5.53
2022-10-04T00:36:31.091Z,6.05
2022-10-04T00:39:04.791Z,5.85
2022-10-04T00:41:53.539Z,5.20
2022-10-04T00:44:36.957Z,5.22
2022-10-04T00:47:13.797Z,5.57
2022-10-04T00:49:46.713Z,5.65
2022-10-04T00:52:19.469Z,5.82
2022-10-04T00:54:56.923Z,5.75
2022-10-04T00:57:40.424Z,5.18
2022-10-04T01:00:19.169Z,5.75
2022-10-04T01:02:58.852Z,5.55
2022-10-04T01:05:32.487Z,5.45
2022-10-04T01:08:12.970Z,5.18
2022-10-04T01:10:48.767Z,5.50
2022-10-04T01:13:26.925Z,5.07
2022-10-04T01:16:11.624Z,4.57
2022-10-04T01:18:38.203Z,4.68
2022-10-04T01:21:16.712Z,4.93
2022-10-04T01:23:57.135Z,5.65
2022-10-04T01:26:26.464Z,6.25
2022-10-04T01:28:53.767Z,5.88
2022-10-04T01:31:21.036Z,5.63
2022-10-04T01:33:47.960Z,5.40
2022-10-04T01:36:14.506Z,5.95
2022-10-04T01:38:40.890Z,6.07
2022-10-04T01:41:10.192Z,5.45
2022-10-04T01:43:41.173Z,5.38
2022-10-04T01:46:16.724Z,6.65
2022-10-04T01:48:45.720Z,6.38
2022-10-04T01:51:23.907Z,5.65
2022-10-04T01:54:02.471Z,6.15
2022-10-04T01:56:42.377Z,5.95
2022-10-04T01:59:16.938Z,5.72
2022-10-04T02:01:49.751Z,6.63
2022-10-04T02:04:23.617Z,6.70
2022-10-04T02:06:54.087Z,6.05
2022-10-04T02:09:26.361Z,6.07
2022-10-04T02:11:54.488Z,6.07
2022-10-04T02:14:25.102Z,6.15
2022-10-04T02:16:53.820Z,6.18
2022-10-04T02:19:28.360Z,5.65
2022-10-04T02:21:56.395Z,5.30
2022-10-04T02:24:23.129Z,5.35
2022-10-04T02:26:51.863Z,5.85
2022-10-04T02:29:21.703Z,5.57
2022-10-04T02:32:09.739Z,4.97
2022-10-04T02:34:36.836Z,4.60
2022-10-04T02:37:05.148Z,5.35
2022-10-04T02:39:44.304Z,5.40
2022-10-04T02:42:42.225Z,5.40
2022-10-04T02:45:14.328Z,4.90
2022-10-04T02:47:47.375Z,5.15
2022-10-04T02:50:26.198Z,4.97
2022-10-04T02:53:00.095Z,4.93
2022-10-04T02:55:33.016Z,4.78
2022-10-04T02:58:00.319Z,4.88
2022-10-04T03:00:31.800Z,4.57
2022-10-04T03:03:25.092Z,4.10
2022-10-04T03:06:15.546Z,4.20
2022-10-04T03:09:08.313Z,4.32
2022-10-04T03:11:39.261Z,4.03
2022-10-04T03:14:13.583Z,4.20
2022-10-04T03:16:43.336Z,4.45
2022-10-04T03:19:11.645Z,4.20
2022-10-04T03:21:40.770Z,4.90
2022-10-04T03:24:15.212Z,4.35
2022-10-04T03:27:02.081Z,5.45
2022-10-04T03:29:31.912Z,5.03
2022-10-04T03:32:02.680Z,4.45
2022-10-04T03:34:36.022Z,4.93
2022-10-04T03:37:05.983Z,4.45
2022-10-04T03:39:42.375Z,5.38
2022-10-04T03:42:16.547Z,4.85
2022-10-04T03:44:46.496Z,4.95
2022-10-04T03:47:19.338Z,4.95
2022-10-04T03:49:50.870Z,5.00
2022-10-04T03:52:23.277Z,5.88
2022-10-04T03:54:53.043Z,5.30
2022-10-04T03:57:19.591Z,4.93
2022-10-04T03:59:46.011Z,4.90
2022-10-04T04:02:36.958Z,5.57
2022-10-04T04:05:15.740Z,5.03
2022-10-04T04:08:06.531Z,4.80
2022-10-04T04:10:39.103Z,5.15
2022-10-04T04:13:11.608Z,5.18
2022-10-04T04:15:41.792Z,5.35
2022-10-04T04:18:18.052Z,6.57
2022-10-04T04:20:45.671Z,6.13
2022-10-04T04:23:14.971Z,6.78
2022-10-04T04:25:59.607Z,6.60
2022-10-04T04:28:34.010Z,7.18
2022-10-04T04:31:13.945Z,6.78
2022-10-04T04:33:45.087Z,6.35
2022-10-04T04:36:12.961Z,7.30
2022-10-04T04:38:57.775Z,6.93
2022-10-04T04:41:26.080Z,6.10
2022-10-04T04:43:52.709Z,7.30
2022-10-04T04:46:27.541Z,6.30
2022-10-04T04:51:32.280Z,7.18
2022-10-04T04:54:01.085Z,6.97
2022-10-04T04:56:29.479Z,7.80
2022-10-04T04:58:59.479Z,7.45
2022-10-04T05:01:30.847Z,6.90
2022-10-04T05:04:09.490Z,7.22
2022-10-04T05:06:39.379Z,8.10
2022-10-04T05:09:06.670Z,7.88
2022-10-04T05:11:37.115Z,7.18
2022-10-04T05:14:09.222Z,7.53
2022-10-04T05:16:44.742Z,8.13
2022-10-04T05:21:46.770Z,6.45
2022-10-04T05:24:21.352Z,6.78
2022-10-04T05:26:53.892Z,6.70
2022-10-04T05:29:31.880Z,6.93
2022-10-04T05:32:22.732Z,6.57
2022-10-04T05:34:50.932Z,6.32
2022-10-04T05:37:34.479Z,5.07
2022-10-04T05:40:12.997Z,5.78
2022-10-04T05:42:45.335Z,5.13
2022-10-04T05:45:25.123Z,5.15
2022-10-04T05:47:54.120Z,5.13
2022-10-04T05:50:28.928Z,5.38
2022-10-04T05:53:08.845Z,5.00
2022-10-04T05:55:52.959Z,6.50
2022-10-04T05:58:53.678Z,5.90
2022-10-04T06:01:38.729Z,6.97
2022-10-04T06:04:28.269Z,6.77
2022-10-04T06:07:00.007Z,7.22
2022-10-04T06:09:51.002Z,6.22
2022-10-04T06:12:44.863Z,6.80
2022-10-04T06:15:31.349Z,6.95
2022-10-04T06:18:09.540Z,6.55
2022-10-04T06:21:02.176Z,6.55
2022-10-04T06:23:30.038Z,6.65
2022-10-04T06:26:01.110Z,7.40
2022-10-04T06:28:30.167Z,7.20
2022-10-04T06:31:27.356Z,7.07
2022-10-04T06:34:17.501Z,7.35
2022-10-04T06:36:59.968Z,8.25
2022-10-04T06:39:55.590Z,7.43
2022-10-04T06:42:37.116Z,8.30
2022-10-04T06:45:29.552Z,8.13
2022-10-04T06:48:26.624Z,8.32
2022-10-04T06:51:13.269Z,8.38
2022-10-04T06:53:50.805Z,8.52
2022-10-04T06:56:30.659Z,8.40
2022-10-04T06:59:05.917Z,9.00
2022-10-04T07:01:38.146Z,10.05
2022-10-04T07:04:24.640Z,10.07
2022-10-04T07:07:35.147Z,11.68
2022-10-04T07:10:31.974Z,11.20
2022-10-04T07:13:28.556Z,10.68
2022-10-04T07:16:08.329Z,11.10
2022-10-04T07:19:03.196Z,12.32
2022-10-04T07:21:55.922Z,11.60
2022-10-04T07:24:33.756Z,12.35
2022-10-04T07:27:02.914Z,12.93
2022-10-04T07:29:41.896Z,12.48
2022-10-04T07:32:17.535Z,13.18
2022-10-04T07:34:54.352Z,12.73
2022-10-04T07:37:21.546Z,13.18
2022-10-04T07:40:18.575Z,12.05
2022-10-04T07:42:44.813Z,11.40
2022-10-04T07:45:15.141Z,12.98
2022-10-04T07:47:43.023Z,12.48
2022-10-04T07:50:28.859Z,12.77
2022-10-04T07:53:09.155Z,12.82
2022-10-04T07:55:47.808Z,13.55
2022-10-04T07:58:26.395Z,14.50
2022-10-04T08:01:22.241Z,13.80
2022-10-04T08:03:58.309Z,13.45
2022-10-04T08:06:30.402Z,14.27
2022-10-04T08:09:23.500Z,11.85
2022-10-04T08:12:07.395Z,13.20
2022-10-04T08:14:50.438Z,13.27
2022-10-04T08:17:41.672Z,12.20
2022-10-04T08:20:19.136Z,13.55
2022-10-04T08:23:10.220Z,14.10
2022-10-04T08:26:01.630Z,16.33
2022-10-04T08:29:01.833Z,14.25
2022-10-04T08:31:46.224Z,11.38
2022-10-04T08:34:29.172Z,11.38
2022-10-04T08:37:26.054Z,13.95
2022-10-04T08:40:23.989Z,15.15
2022-10-04T08:43:23.112Z,12.75
2022-10-04T08:46:20.531Z,28.52
2022-10-04T08:49:16.404Z,12.20
2022-10-04T08:52:02.805Z,12.50
2022-10-04T08:54:56.064Z,13.48
2022-10-04T08:57:50.269Z,12.50
2022-10-04T09:00:39.347Z,13.50
2022-10-04T09:03:27.292Z,12.13
2022-10-04T09:06:07.718Z,12.50
2022-10-04T09:09:11.626Z,11.73
2022-10-04T09:12:03.611Z,11.23
2022-10-04T09:14:40.116Z,12.15
2022-10-04T09:17:22.803Z,12.32
2022-10-04T09:20:33.341Z,12.48
2022-10-04T09:23:16.505Z,11.85
2022-10-04T09:25:52.352Z,9.75
2022-10-04T09:28:39.965Z,9.52
2022-10-04T09:31:12.437Z,10.25
2022-10-04T09:34:03.619Z,9.80
2022-10-04T09:37:07.385Z,9.90
2022-10-04T09:39:42.420Z,9.73
2022-10-04T09:42:39.064Z,9.63
2022-10-04T09:45:28.701Z,8.95
2022-10-04T09:48:25.416Z,9.25
2022-10-04T09:51:25.201Z,8.82
2022-10-04T09:53:54.577Z,9.18
2022-10-04T09:56:28.422Z,9.25
2022-10-04T09:59:08.729Z,9.73
2022-10-04T10:02:10.242Z,10.05
2022-10-04T10:04:42.218Z,9.50
2022-10-04T10:07:24.844Z,9.38
2022-10-04T10:10:58.103Z,9.57
2022-10-04T10:14:05.375Z,8.77
2022-10-04T10:16:49.803Z,8.45
2022-10-04T10:19:30.863Z,9.90
2022-10-04T10:22:28.853Z,9.75
2022-10-04T10:25:05.051Z,8.07
2022-10-04T10:28:04.869Z,7.28
2022-10-04T10:31:10.786Z,6.80
2022-10-04T10:34:03.025Z,7.40
2022-10-04T10:36:48.722Z,7.30
2022-10-04T10:39:37.845Z,7.97
2022-10-04T10:42:17.740Z,7.47
2022-10-04T10:45:19.680Z,8.30
2022-10-04T10:47:45.952Z,7.88
2022-10-04T10:50:27.209Z,7.70
2022-10-04T10:53:26.031Z,8.43
2022-10-04T10:56:08.396Z,7.53
2022-10-04T10:58:59.251Z,7.80
2022-10-04T11:01:50.495Z,7.05
2022-10-04T11:04:22.710Z,7.38
2022-10-04T11:07:20.437Z,7.70
2022-10-04T11:10:01.601Z,7.35
2022-10-04T11:12:48.591Z,6.88
2022-10-04T11:15:33.627Z,6.93
2022-10-04T11:18:18.339Z,8.65
2022-10-04T11:21:12.274Z,7.25
2022-10-04T11:24:32.531Z,6.85
2022-10-04T11:27:25.017Z,5.78
2022-10-04T11:30:16.723Z,6.00
2022-10-04T11:33:02.081Z,5.40
2022-10-04T11:35:40.543Z,5.57
2022-10-04T11:38:27.200Z,5.53
2022-10-04T11:41:03.871Z,5.97
2022-10-04T11:43:50.023Z,5.43
2022-10-04T11:46:40.314Z,5.47
2022-10-04T11:49:26.279Z,5.35
2022-10-04T11:52:11.193Z,5.38
2022-10-04T11:55:06.519Z,4.70
2022-10-04T11:57:53.818Z,6.25
2022-10-04T12:00:25.557Z,4.68
2022-10-04T12:03:02.589Z,4.75
2022-10-04T12:05:51.059Z,5.57
2022-10-04T12:08:33.160Z,4.65
2022-10-04T12:11:21.158Z,5.22
2022-10-04T12:14:21.545Z,5.32
2022-10-04T12:17:08.692Z,4.82
2022-10-04T12:19:52.153Z,5.60
2022-10-04T12:22:27.703Z,5.15
2022-10-04T12:25:14.464Z,4.88
2022-10-04T12:28:17.868Z,5.53
2022-10-04T12:31:12.091Z,5.65
2022-10-04T12:34:03.255Z,5.53
2022-10-04T12:36:58.909Z,6.25
2022-10-04T12:39:43.871Z,6.55
2022-10-04T12:42:32.357Z,6.13
2022-10-04T12:45:20.927Z,6.03
2022-10-04T12:48:15.380Z,5.93
2022-10-04T12:51:00.196Z,6.85
2022-10-04T12:53:42.072Z,6.50
2022-10-04T12:56:35.746Z,6.75
2022-10-04T12:59:11.030Z,7.53
2022-10-04T13:05:07.735Z,6.47
2022-10-04T13:08:12.074Z,6.85
2022-10-04T13:10:53.332Z,6.20
2022-10-04T13:13:44.564Z,6.10
2022-10-04T13:19:22.414Z,6.07
2022-10-04T13:22:54.810Z,6.10
2022-10-04T13:25:40.836Z,6.47
2022-10-04T13:28:22.999Z,5.63
2022-10-04T13:30:53.693Z,6.20
2022-10-04T13:33:31.597Z,5.72
2022-10-04T13:36:24.117Z,5.32
2022-10-04T13:39:07.371Z,5.03
2022-10-04T13:42:12.654Z,5.45
2022-10-04T13:45:19.130Z,5.18
2022-10-04T13:47:48.526Z,5.43
2022-10-04T13:50:14.782Z,5.40
2022-10-04T13:53:06.249Z,5.75
2022-10-04T13:56:02.526Z,5.03
2022-10-04T13:58:53.108Z,5.88
2022-10-04T14:01:56.989Z,5.85
2022-10-04T14:04:53.277Z,5.60
2022-10-04T14:07:47.077Z,5.05
2022-10-04T14:10:47.580Z,6.22
2022-10-04T14:13:42.860Z,5.43
2022-10-04T14:16:41.573Z,5.27
2022-10-04T14:19:32.275Z,4.75
2022-10-04T14:22:04.645Z,4.82
2022-10-04T14:24:37.375Z,5.65
2022-10-04T14:27:13.433Z,5.32
2022-10-04T14:30:00.794Z,5.20
2022-10-04T14:33:04.084Z,5.43
2022-10-04T14:35:34.111Z,5.20
2022-10-04T14:38:15.730Z,5.15
2022-10-04T14:40:59.347Z,5.10
2022-10-04T14:43:43.806Z,5.45
2022-10-04T14:46:22.784Z,5.07
2022-10-04T14:49:16.887Z,5.95
2022-10-04T14:52:14.177Z,5.38
2022-10-04T14:55:02.928Z,4.95
2022-10-04T14:58:07.146Z,5.05
2022-10-04T15:00:52.131Z,4.90
2022-10-04T15:03:30.654Z,5.05
2022-10-04T15:06:33.995Z,4.57
2022-10-04T15:09:31.145Z,4.80
2022-10-04T15:12:27.099Z,5.15
2022-10-04T15:14:58.475Z,5.00
2022-10-04T15:17:27.421Z,4.78
2022-10-04T15:20:22.255Z,4.38
2022-10-04T15:23:07.103Z,4.95
2022-10-04T15:25:47.986Z,4.53
2022-10-04T15:28:49.918Z,6.30
2022-10-04T15:31:26.534Z,5.10
2022-10-04T15:34:22.307Z,5.40
2022-10-04T15:37:07.880Z,4.82
2022-10-04T15:40:03.412Z,12.38
2022-10-04T15:42:41.113Z,6.38
2022-10-04T15:45:31.048Z,7.38
2022-10-04T15:48:11.064Z,5.22
2022-10-04T15:50:57.030Z,4.78
2022-10-04T15:53:51.136Z,5.28
2022-10-04T15:56:49.017Z,4.95
2022-10-04T16:00:03.823Z,5.25
2022-10-04T16:02:51.687Z,4.90
2022-10-04T16:05:37.426Z,5.30
2022-10-04T16:10:38.499Z,4.60
2022-10-04T16:13:16.868Z,4.65
2022-10-04T16:15:49.356Z,5.15
2022-10-04T16:18:45.932Z,5.00
2022-10-04T16:21:49.531Z,5.40
2022-10-04T16:24:38.419Z,5.05
2022-10-04T16:27:38.548Z,5.57
2022-10-04T16:30:37.878Z,5.40
2022-10-04T16:33:36.019Z,5.60
2022-10-04T16:36:16.676Z,5.45
2022-10-04T16:39:08.172Z,5.47
2022-10-04T16:41:53.306Z,5.88
2022-10-04T16:44:48.864Z,5.65
2022-10-04T16:47:23.539Z,7.82
2022-10-04T16:49:57.037Z,8.60
2022-10-04T16:52:47.995Z,8.02
2022-10-04T16:55:30.408Z,8.60
2022-10-04T16:58:27.531Z,8.15
2022-10-04T17:01:22.088Z,7.78
2022-10-04T17:04:27.051Z,7.97
2022-10-04T17:06:59.012Z,8.60
2022-10-04T17:09:46.631Z,8.30
2022-10-04T17:12:12.874Z,7.63
2022-10-04T17:14:39.150Z,46.40
2022-10-04T17:17:31.592Z,49.22
2022-10-04T17:20:21.225Z,26.27
2022-10-04T17:22:59.785Z,39.05
2022-10-04T17:25:47.413Z,23.15
2022-10-04T17:28:45.971Z,11.32
2022-10-04T17:31:26.404Z,9.38
2022-10-04T17:34:20.556Z,7.18
2022-10-04T17:37:17.709Z,6.68
2022-10-04T17:39:53.487Z,5.43
2022-10-04T17:42:42.251Z,5.22
2022-10-04T17:45:19.546Z,5.13
2022-10-04T17:48:17.170Z,4.55
2022-10-04T17:51:11.155Z,5.07
2022-10-04T17:54:00.290Z,4.80
2022-10-04T17:56:35.264Z,4.75
2022-10-04T17:59:12.270Z,5.20
2022-10-04T18:01:51.748Z,5.38
2022-10-04T18:04:37.311Z,5.97
2022-10-04T18:07:03.572Z,5.78
2022-10-04T18:09:36.230Z,5.45
2022-10-04T18:12:14.806Z,5.82
2022-10-04T18:14:50.359Z,8.15
2022-10-04T18:17:30.870Z,5.88
2022-10-04T18:20:15.829Z,5.95
2022-10-04T18:22:58.995Z,5.73
2022-10-04T18:25:29.126Z,6.88
2022-10-04T18:28:07.526Z,6.35
2022-10-04T18:30:53.805Z,6.80
2022-10-04T18:33:26.521Z,7.13
2022-10-04T18:36:19.302Z,7.93
2022-10-04T18:39:00.442Z,8.98
2022-10-04T18:41:47.303Z,9.52
2022-10-04T18:44:16.548Z,10.30
2022-10-04T18:46:48.037Z,10.77
2022-10-04T18:49:25.351Z,10.35
2022-10-04T18:52:11.180Z,9.93
2022-10-04T18:58:19.772Z,7.70
2022-10-04T19:01:16.178Z,6.43
2022-10-04T19:04:10.169Z,6.68
2022-10-04T19:06:38.577Z,6.57
2022-10-04T19:09:25.841Z,7.13
2022-10-04T19:11:59.351Z,7.97
2022-10-04T19:15:12.403Z,8.68
2022-10-04T19:17:49.196Z,7.47
2022-10-04T19:20:21.314Z,5.10
2022-10-04T19:23:17.514Z,4.55
2022-10-04T19:26:16.275Z,6.32
2022-10-04T19:28:38.102Z,5.53
2022-10-04T19:31:24.158Z,4.85
2022-10-04T19:33:55.780Z,4.65
2022-10-04T19:36:36.429Z,4.78
2022-10-04T19:39:24.468Z,4.82
2022-10-04T19:42:03.720Z,4.95
2022-10-04T19:44:41.755Z,5.95
2022-10-04T19:47:14.085Z,6.10
2022-10-04T19:49:49.479Z,5.60
2022-10-04T19:52:37.613Z,4.70
2022-10-04T19:55:27.310Z,5.47
2022-10-04T19:58:06.228Z,5.10
2022-10-04T20:00:35.526Z,5.53
2022-10-04T20:03:02.097Z,6.20
2022-10-04T20:05:29.249Z,6.07
2022-10-04T20:08:04.585Z,6.60
2022-10-04T20:10:34.749Z,9.30
2022-10-04T20:13:26.268Z,8.45
2022-10-04T20:15:59.520Z,8.27
2022-10-04T20:18:31.754Z,8.75
2022-10-04T20:20:58.781Z,8.02
2022-10-04T20:23:40.169Z,8.50
2022-10-04T20:26:08.677Z,7.70
2022-10-04T20:28:40.088Z,8.65
2022-10-04T20:31:08.744Z,8.57
2022-10-04T20:33:36.644Z,8.05
2022-10-04T20:36:19.372Z,8.35
2022-10-04T20:38:59.318Z,7.45
2022-10-04T20:41:28.594Z,6.10
2022-10-04T20:44:03.750Z,6.15
2022-10-04T20:46:39.722Z,6.00
2022-10-04T20:49:15.852Z,5.35
2022-10-04T20:51:49.532Z,5.07
2022-10-04T20:54:20.081Z,4.43
2022-10-04T20:56:48.948Z,4.90
2022-10-04T20:59:17.243Z,4.63
2022-10-04T21:02:00.727Z,5.78
2022-10-04T21:04:32.421Z,4.90
2022-10-04T21:07:00.054Z,5.25
2022-10-04T21:09:28.129Z,5.18
2022-10-04T21:11:56.007Z,5.47
2022-10-04T21:14:26.249Z,5.25
2022-10-04T21:17:02.190Z,5.60
2022-10-04T21:19:29.253Z,5.70
2022-10-04T21:21:56.832Z,5.75
2022-10-04T21:24:39.626Z,6.35
2022-10-04T21:27:08.913Z,7.45
2022-10-04T21:29:35.280Z,7.30
2022-10-04T21:32:01.821Z,8.45
2022-10-04T21:34:52.096Z,7.85
2022-10-04T21:37:15.549Z,8.05
2022-10-04T21:39:42.088Z,8.00
2022-10-04T21:42:08.380Z,8.32
2022-10-04T21:44:34.727Z,8.27
2022-10-04T21:47:01.007Z,8.25
2022-10-04T21:49:27.263Z,8.18
2022-10-04T21:51:53.588Z,7.45
2022-10-04T21:54:19.942Z,6.75
2022-10-04T21:56:46.456Z,6.00
2022-10-04T21:59:13.053Z,6.15
2022-10-04T22:01:39.345Z,6.05
2022-10-04T22:04:05.673Z,5.53
2022-10-04T22:06:31.974Z,6.30
2022-10-04T22:08:58.247Z,6.32
2022-10-04T22:11:24.627Z,6.70
2022-10-04T22:13:51.079Z,6.07
2022-10-04T22:16:17.500Z,6.20
2022-10-04T22:18:43.808Z,6.50
2022-10-04T22:21:10.225Z,6.85
2022-10-04T22:23:39.632Z,7.57
2022-10-04T22:26:20.833Z,7.47
2022-10-04T22:28:52.300Z,7.13
2022-10-04T22:31:29.060Z,6.60
2022-10-04T22:33:55.992Z,7.35
2022-10-04T22:36:39.592Z,7.72
2022-10-04T22:39:08.910Z,6.40
2022-10-04T22:41:36.563Z,6.50
2022-10-04T22:44:17.827Z,6.43
2022-10-04T22:46:50.951Z,6.50
2022-10-04T22:49:21.389Z,6.07
2022-10-04T22:51:49.668Z,6.07
2022-10-04T22:54:19.067Z,6.80
2022-10-04T22:56:46.231Z,7.05
2022-10-04T22:59:15.664Z,6.55
2022-10-04T23:01:43.448Z,6.50
2022-10-04T23:04:18.508Z,5.70
2022-10-04T23:06:45.141Z,5.72
2022-10-04T23:09:11.681Z,5.95
2022-10-04T23:11:38.067Z,6.40
2022-10-04T23:14:04.408Z,5.55
2022-10-04T23:16:31.227Z,7.07
2022-10-04T23:19:08.888Z,5.88
2022-10-04T23:21:37.615Z,6.28
2022-10-04T23:24:15.247Z,6.30
2022-10-04T23:26:44.782Z,6.28
2022-10-04T23:29:32.357Z,6.40
2022-10-04T23:31:58.902Z,5.85
2022-10-04T23:34:33.700Z,5.38
2022-10-04T23:37:00.198Z,4.75
2022-10-04T23:39:32.544Z,5.07
2022-10-04T23:41:59.603Z,4.78
2022-10-04T23:44:34.096Z,5.78
2022-10-04T23:47:01.206Z,5.20
2022-10-04T23:49:28.083Z,6.60
2022-10-04T23:52:01.441Z,5.88
2022-10-04T23:54:28.243Z,5.57
2022-10-04T23:56:54.565Z,6.03
2022-10-04T23:59:25.309Z,5.95
